Prudhoe Bay, Alaska
Current Conditions -  °F | °C
As of 3:53 AM on Friday 19 Dec 2014 (Local Time) from PASC Reporting Station
Overcast Overcast  
Wind Chill: -21°   Ceiling: 10000
Heat Index: -4°   Visibility: 10mi
Dew Point: -9°   Wind: 10mph
Humidity: 79%   Direction: 50°NE
Pressure: 29.8"   Gusts: NA
Location:  70.28°N, 148.38°W
Report Text: PASC 191253Z 05009KT 10SM SCT010 OVC100 M20/M23 A2980 RMK AO2 SLP094 I1000 T12001228
Loading
Personal Weather Stations






























Interactive Weather Map New forecast layout! Learn more

10-Day Weather Forecast

Advertisements
Track Severe Weather on mobile